sensor_id;sensor_type;location;lat;lon;timestamp;pressure;altitude;pressure_sealevel;temperature
53667;BMP280;39568;51.026;5.468;2022-12-04T00:01:04;100769.41;;;1.48
53667;BMP280;39568;51.026;5.468;2022-12-04T00:03:32;100761.72;;;1.41
53667;BMP280;39568;51.026;5.468;2022-12-04T00:06:03;100760.91;;;1.44
53667;BMP280;39568;51.026;5.468;2022-12-04T00:08:29;100756.78;;;1.43
53667;BMP280;39568;51.026;5.468;2022-12-04T00:10:56;100751.88;;;1.45
53667;BMP280;39568;51.026;5.468;2022-12-04T00:13:23;100755.13;;;1.49
53667;BMP280;39568;51.026;5.468;2022-12-04T00:15:51;100769.72;;;1.50
53667;BMP280;39568;51.026;5.468;2022-12-04T00:18:17;100754.81;;;1.47
53667;BMP280;39568;51.026;5.468;2022-12-04T00:20:44;100763.56;;;1.57
53667;BMP280;39568;51.026;5.468;2022-12-04T00:23:11;100771.75;;;1.59
53667;BMP280;39568;51.026;5.468;2022-12-04T00:25:37;100763.56;;;1.57
53667;BMP280;39568;51.026;5.468;2022-12-04T00:28:04;100761.00;;;1.53
53667;BMP280;39568;51.026;5.468;2022-12-04T00:30:31;100769.72;;;1.50
53667;BMP280;39568;51.026;5.468;2022-12-04T00:32:59;100770.91;;;1.62
53667;BMP280;39568;51.026;5.468;2022-12-04T00:35:25;100762.84;;;1.56
53667;BMP280;39568;51.026;5.468;2022-12-04T00:37:52;100757.25;;;1.54
53667;BMP280;39568;51.026;5.468;2022-12-04T00:40:19;100756.75;;;1.59
53667;BMP280;39568;51.026;5.468;2022-12-04T00:42:45;100762.41;;;1.58
53667;BMP280;39568;51.026;5.468;2022-12-04T00:45:12;100756.66;;;1.63
53667;BMP280;39568;51.026;5.468;2022-12-04T00:47:38;100758.88;;;1.64
53667;BMP280;39568;51.026;5.468;2022-12-04T00:50:08;100751.81;;;1.61
53667;BMP280;39568;51.026;5.468;2022-12-04T00:52:34;100748.06;;;1.62
53667;BMP280;39568;51.026;5.468;2022-12-04T00:55:01;100746.16;;;1.63
53667;BMP280;39568;51.026;5.468;2022-12-04T00:57:28;100757.06;;;1.61
53667;BMP280;39568;51.026;5.468;2022-12-04T00:59:54;100747.41;;;1.58
53667;BMP280;39568;51.026;5.468;2022-12-04T01:02:21;100747.75;;;1.60
53667;BMP280;39568;51.026;5.468;2022-12-04T01:04:48;100747.56;;;1.67
53667;BMP280;39568;51.026;5.468;2022-12-04T01:07:16;100749.09;;;1.65
53667;BMP280;39568;51.026;5.468;2022-12-04T01:09:42;100752.44;;;1.53
53667;BMP280;39568;51.026;5.468;2022-12-04T01:12:09;100750.53;;;1.53
53667;BMP280;39568;51.026;5.468;2022-12-04T01:14:36;100755.72;;;1.57
53667;BMP280;39568;51.026;5.468;2022-12-04T01:17:02;100752.66;;;1.58
53667;BMP280;39568;51.026;5.468;2022-12-04T01:19:29;100750.69;;;1.62
53667;BMP280;39568;51.026;5.468;2022-12-04T01:21:55;100751.41;;;1.63
53667;BMP280;39568;51.026;5.468;2022-12-04T01:24:23;100745.81;;;1.48
53667;BMP280;39568;51.026;5.468;2022-12-04T01:26:50;100750.53;;;1.53
53667;BMP280;39568;51.026;5.468;2022-12-04T01:29:17;100751.38;;;1.50
53667;BMP280;39568;51.026;5.468;2022-12-04T01:31:43;100744.63;;;1.49
53667;BMP280;39568;51.026;5.468;2022-12-04T01:34:10;100744.63;;;1.49
53667;BMP280;39568;51.026;5.468;2022-12-04T01:36:36;100752.50;;;1.49
53667;BMP280;39568;51.026;5.468;2022-12-04T01:39:03;100748.19;;;1.42
53667;BMP280;39568;51.026;5.468;2022-12-04T01:41:31;100746.22;;;1.46
53667;BMP280;39568;51.026;5.468;2022-12-04T01:44:10;100748.09;;;1.46
53667;BMP280;39568;51.026;5.468;2022-12-04T01:46:38;100748.75;;;1.50
53667;BMP280;39568;51.026;5.468;2022-12-04T01:49:05;100741.56;;;1.38
53667;BMP280;39568;51.026;5.468;2022-12-04T01:51:35;100743.13;;;1.35
53667;BMP280;39568;51.026;5.468;2022-12-04T01:54:04;100740.66;;;1.44
53667;BMP280;39568;51.026;5.468;2022-12-04T01:56:37;100740.75;;;1.41
53667;BMP280;39568;51.026;5.468;2022-12-04T01:59:06;100732.16;;;1.40
53667;BMP280;39568;51.026;5.468;2022-12-04T02:01:37;100743.69;;;1.43
53667;BMP280;39568;51.026;5.468;2022-12-04T02:04:05;100744.41;;;1.43
53667;BMP280;39568;51.026;5.468;2022-12-04T02:06:32;100747.19;;;1.53
53667;BMP280;39568;51.026;5.468;2022-12-04T02:08:59;100746.66;;;1.45
53667;BMP280;39568;51.026;5.468;2022-12-04T02:11:31;100731.03;;;1.54
53667;BMP280;39568;51.026;5.468;2022-12-04T02:14:08;100744.97;;;1.51
53667;BMP280;39568;51.026;5.468;2022-12-04T02:16:42;100745.81;;;1.48
53667;BMP280;39568;51.026;5.468;2022-12-04T02:19:32;100737.41;;;1.53
53667;BMP280;39568;51.026;5.468;2022-12-04T02:22:04;100732.38;;;1.46
53667;BMP280;39568;51.026;5.468;2022-12-04T02:24:41;100731.53;;;1.49
53667;BMP280;39568;51.026;5.468;2022-12-04T02:27:19;100741.31;;;1.49
53667;BMP280;39568;51.026;5.468;2022-12-04T02:29:56;100734.00;;;1.56
53667;BMP280;39568;51.026;5.468;2022-12-04T02:32:27;100733.19;;;1.43
53667;BMP280;39568;51.026;5.468;2022-12-04T02:35:01;100731.63;;;1.45
53667;BMP280;39568;51.026;5.468;2022-12-04T02:37:32;100726.25;;;1.36
53667;BMP280;39568;51.026;5.468;2022-12-04T02:40:04;100733.69;;;1.38
53667;BMP280;39568;51.026;5.468;2022-12-04T02:42:35;100727.66;;;1.41
53667;BMP280;39568;51.026;5.468;2022-12-04T02:45:08;100725.56;;;1.49
53667;BMP280;39568;51.026;5.468;2022-12-04T02:47:37;100724.50;;;1.46
53667;BMP280;39568;51.026;5.468;2022-12-04T02:50:09;100725.19;;;1.34
53667;BMP280;39568;51.026;5.468;2022-12-04T02:52:37;100732.31;;;1.33
53667;BMP280;39568;51.026;5.468;2022-12-04T02:55:08;100725.66;;;1.45
53667;BMP280;39568;51.026;5.468;2022-12-04T02:57:37;100733.59;;;1.41
53667;BMP280;39568;51.026;5.468;2022-12-04T03:00:09;100736.97;;;1.42
53667;BMP280;39568;51.026;5.468;2022-12-04T03:02:40;100728.59;;;1.47
53667;BMP280;39568;51.026;5.468;2022-12-04T03:05:12;100731.63;;;1.45
53667;BMP280;39568;51.026;5.468;2022-12-04T03:07:42;100734.25;;;1.45
53667;BMP280;39568;51.026;5.468;2022-12-04T03:10:13;100730.38;;;1.50
53667;BMP280;39568;51.026;5.468;2022-12-04T03:12:42;100723.66;;;1.49
53667;BMP280;39568;51.026;5.468;2022-12-04T03:15:14;100727.97;;;1.43
53667;BMP280;39568;51.026;5.468;2022-12-04T03:17:46;100737.50;;;1.50
53667;BMP280;39568;51.026;5.468;2022-12-04T03:20:16;100740.56;;;1.48
53667;BMP280;39568;51.026;5.468;2022-12-04T03:22:45;100733.09;;;1.46
53667;BMP280;39568;51.026;5.468;2022-12-04T03:25:15;100743.13;;;1.35
53667;BMP280;39568;51.026;5.468;2022-12-04T03:27:45;100734.88;;;1.37
53667;BMP280;39568;51.026;5.468;2022-12-04T03:30:17;100729.34;;;1.48
53667;BMP280;39568;51.026;5.468;2022-12-04T03:32:49;100740.13;;;1.50
53667;BMP280;39568;51.026;5.468;2022-12-04T03:35:20;100736.38;;;1.51
53667;BMP280;39568;51.026;5.468;2022-12-04T03:37:49;100726.63;;;1.51
53667;BMP280;39568;51.026;5.468;2022-12-04T03:40:22;100732.38;;;1.46
53667;BMP280;39568;51.026;5.468;2022-12-04T03:43:02;100733.19;;;1.43
53667;BMP280;39568;51.026;5.468;2022-12-04T03:45:36;100727.66;;;1.41
53667;BMP280;39568;51.026;5.468;2022-12-04T03:48:08;100723.63;;;1.36
53667;BMP280;39568;51.026;5.468;2022-12-04T03:50:37;100726.06;;;1.43
53667;BMP280;39568;51.026;5.468;2022-12-04T03:53:11;100733.84;;;1.47
53667;BMP280;39568;51.026;5.468;2022-12-04T03:55:44;100722.31;;;1.44
53667;BMP280;39568;51.026;5.468;2022-12-04T03:58:21;100733.19;;;1.43
53667;BMP280;39568;51.026;5.468;2022-12-04T04:00:52;100722.41;;;1.41
53667;BMP280;39568;51.026;5.468;2022-12-04T04:03:21;100722.31;;;1.44
53667;BMP280;39568;51.026;5.468;2022-12-04T04:05:53;100719.13;;;1.37
53667;BMP280;39568;51.026;5.468;2022-12-04T04:08:23;100723.22;;;1.25
53667;BMP280;39568;51.026;5.468;2022-12-04T04:10:54;100722.91;;;1.36
53667;BMP280;39568;51.026;5.468;2022-12-04T04:13:27;100722.91;;;1.36
53667;BMP280;39568;51.026;5.468;2022-12-04T04:16:19;100720.81;;;1.31
53667;BMP280;39568;51.026;5.468;2022-12-04T04:19:04;100720.59;;;1.38
53667;BMP280;39568;51.026;5.468;2022-12-04T04:21:51;100716.00;;;1.42
53667;BMP280;39568;51.026;5.468;2022-12-04T04:24:40;100721.13;;;1.45
53667;BMP280;39568;51.026;5.468;2022-12-04T04:27:08;100717.56;;;1.39
53667;BMP280;39568;51.026;5.468;2022-12-04T04:29:35;100719.53;;;1.35
53667;BMP280;39568;51.026;5.468;2022-12-04T04:32:08;100723.84;;;1.42
53667;BMP280;39568;51.026;5.468;2022-12-04T04:34:40;100727.81;;;1.34
53667;BMP280;39568;51.026;5.468;2022-12-04T04:37:15;100725.19;;;1.34
53667;BMP280;39568;51.026;5.468;2022-12-04T04:39:47;100721.66;;;1.40
53667;BMP280;39568;51.026;5.468;2022-12-04T04:42:20;100715.56;;;1.31
53667;BMP280;39568;51.026;5.468;2022-12-04T04:44:53;100715.34;;;1.38
53667;BMP280;39568;51.026;5.468;2022-12-04T04:47:31;100716.09;;;1.38
53667;BMP280;39568;51.026;5.468;2022-12-04T04:50:00;100710.31;;;1.31
53667;BMP280;39568;51.026;5.468;2022-12-04T04:52:29;100718.53;;;1.33
53667;BMP280;39568;51.026;5.468;2022-12-04T04:54:58;100716.06;;;1.26
53667;BMP280;39568;51.026;5.468;2022-12-04T04:57:26;100715.00;;;1.23
53667;BMP280;39568;51.026;5.468;2022-12-04T04:59:53;100717.97;;;1.25
53667;BMP280;39568;51.026;5.468;2022-12-04T05:02:20;100716.56;;;1.21
53667;BMP280;39568;51.026;5.468;2022-12-04T05:04:48;100715.00;;;1.23
53667;BMP280;39568;51.026;5.468;2022-12-04T05:07:15;100709.56;;;1.30
53667;BMP280;39568;51.026;5.468;2022-12-04T05:09:41;100722.16;;;1.35
53667;BMP280;39568;51.026;5.468;2022-12-04T05:12:09;100714.91;;;1.27
53667;BMP280;39568;51.026;5.468;2022-12-04T05:14:35;100715.66;;;1.27
53667;BMP280;39568;51.026;5.468;2022-12-04T05:17:03;100711.34;;;1.21
53667;BMP280;39568;51.026;5.468;2022-12-04T05:19:31;100710.09;;;1.25
53667;BMP280;39568;51.026;5.468;2022-12-04T05:22:17;100701.50;;;1.25
53667;BMP280;39568;51.026;5.468;2022-12-04T05:24:43;100704.06;;;1.12
53667;BMP280;39568;51.026;5.468;2022-12-04T05:27:10;100705.69;;;1.06
53667;BMP280;39568;51.026;5.468;2022-12-04T05:29:37;100699.47;;;1.16
53667;BMP280;39568;51.026;5.468;2022-12-04T05:32:04;100707.22;;;1.20
53667;BMP280;39568;51.026;5.468;2022-12-04T05:34:31;100710.50;;;1.24
53667;BMP280;39568;51.026;5.468;2022-12-04T05:36:58;100704.72;;;1.16
53667;BMP280;39568;51.026;5.468;2022-12-04T05:39:26;100702.41;;;1.18
53667;BMP280;39568;51.026;5.468;2022-12-04T05:41:53;100705.34;;;1.20
53667;BMP280;39568;51.026;5.468;2022-12-04T05:44:19;100712.47;;;1.20
53667;BMP280;39568;51.026;5.468;2022-12-04T05:46:46;100709.38;;;1.25
53667;BMP280;39568;51.026;5.468;2022-12-04T05:49:12;100701.84;;;1.11
53667;BMP280;39568;51.026;5.468;2022-12-04T05:51:39;100696.41;;;1.18
53667;BMP280;39568;51.026;5.468;2022-12-04T05:54:06;100696.41;;;1.18
53667;BMP280;39568;51.026;5.468;2022-12-04T05:56:34;100693.28;;;1.23
53667;BMP280;39568;51.026;5.468;2022-12-04T05:59:00;100703.47;;;1.21
53667;BMP280;39568;51.026;5.468;2022-12-04T06:01:27;100700.38;;;1.10
53667;BMP280;39568;51.026;5.468;2022-12-04T06:03:54;100698.72;;;1.16
53667;BMP280;39568;51.026;5.468;2022-12-04T06:06:22;100696.34;;;1.21
53667;BMP280;39568;51.026;5.468;2022-12-04T06:08:50;100703.13;;;1.19
53667;BMP280;39568;51.026;5.468;2022-12-04T06:11:18;100693.94;;;1.27
53667;BMP280;39568;51.026;5.468;2022-12-04T06:13:47;100695.72;;;1.30
53667;BMP280;39568;51.026;5.468;2022-12-04T06:16:15;100701.81;;;1.27
53667;BMP280;39568;51.026;5.468;2022-12-04T06:18:42;100702.78;;;1.33
53667;BMP280;39568;51.026;5.468;2022-12-04T06:21:09;100698.34;;;1.30
53667;BMP280;39568;51.026;5.468;2022-12-04T06:23:36;100697.81;;;1.35
53667;BMP280;39568;51.026;5.468;2022-12-04T06:26:03;100703.47;;;1.33
53667;BMP280;39568;51.026;5.468;2022-12-04T06:28:30;100713.78;;;1.28
53667;BMP280;39568;51.026;5.468;2022-12-04T06:31:01;100710.31;;;1.31
53667;BMP280;39568;51.026;5.468;2022-12-04T06:33:28;100715.91;;;1.33
53667;BMP280;39568;51.026;5.468;2022-12-04T06:35:58;100716.91;;;1.35
53667;BMP280;39568;51.026;5.468;2022-12-04T06:38:25;100718.59;;;1.29
53667;BMP280;39568;51.026;5.468;2022-12-04T06:40:52;100719.31;;;1.30
53667;BMP280;39568;51.026;5.468;2022-12-04T06:43:18;100730.63;;;1.27
53667;BMP280;39568;51.026;5.468;2022-12-04T06:45:45;100720.69;;;1.34
53667;BMP280;39568;51.026;5.468;2022-12-04T06:48:13;100718.53;;;1.33
53667;BMP280;39568;51.026;5.468;2022-12-04T06:50:40;100726.66;;;1.35
53667;BMP280;39568;51.026;5.468;2022-12-04T06:53:06;100721.75;;;1.37
53667;BMP280;39568;51.026;5.468;2022-12-04T06:55:33;100731.06;;;1.38
53667;BMP280;39568;51.026;5.468;2022-12-04T06:58:00;100727.41;;;1.35
53667;BMP280;39568;51.026;5.468;2022-12-04T07:00:26;100733.28;;;1.39
53667;BMP280;39568;51.026;5.468;2022-12-04T07:02:53;100725.19;;;1.34
53667;BMP280;39568;51.026;5.468;2022-12-04T07:05:21;100721.41;;;1.35
53667;BMP280;39568;51.026;5.468;2022-12-04T07:07:48;100725.19;;;1.34
53667;BMP280;39568;51.026;5.468;2022-12-04T07:10:15;100732.47;;;1.42
53667;BMP280;39568;51.026;5.468;2022-12-04T07:12:42;100724.38;;;1.37
53667;BMP280;39568;51.026;5.468;2022-12-04T07:15:09;100722.81;;;1.39
53667;BMP280;39568;51.026;5.468;2022-12-04T07:17:36;100730.75;;;1.36
53667;BMP280;39568;51.026;5.468;2022-12-04T07:20:03;100738.94;;;1.38
53667;BMP280;39568;51.026;5.468;2022-12-04T07:22:31;100739.91;;;1.44
53667;BMP280;39568;51.026;5.468;2022-12-04T07:24:58;100739.28;;;1.40
53667;BMP280;39568;51.026;5.468;2022-12-04T07:27:25;100738.53;;;1.39
53667;BMP280;39568;51.026;5.468;2022-12-04T07:29:51;100736.31;;;1.38
53667;BMP280;39568;51.026;5.468;2022-12-04T07:32:18;100743.69;;;1.43
53667;BMP280;39568;51.026;5.468;2022-12-04T07:34:45;100748.94;;;1.43
53667;BMP280;39568;51.026;5.468;2022-12-04T07:37:11;100750.72;;;1.46
53667;BMP280;39568;51.026;5.468;2022-12-04T07:39:40;100746.13;;;1.50
53667;BMP280;39568;51.026;5.468;2022-12-04T07:42:06;100747.59;;;1.51
53667;BMP280;39568;51.026;5.468;2022-12-04T07:44:33;100747.09;;;1.56
53667;BMP280;39568;51.026;5.468;2022-12-04T07:46:59;100747.41;;;1.58
53667;BMP280;39568;51.026;5.468;2022-12-04T07:49:26;100748.75;;;1.50
53667;BMP280;39568;51.026;5.468;2022-12-04T07:51:53;100745.06;;;1.48
53667;BMP280;39568;51.026;5.468;2022-12-04T07:54:19;100752.50;;;1.49
53667;BMP280;39568;51.026;5.468;2022-12-04T07:56:47;100752.94;;;1.48
53667;BMP280;39568;51.026;5.468;2022-12-04T07:59:14;100747.19;;;1.53
53667;BMP280;39568;51.026;5.468;2022-12-04T08:01:41;100744.97;;;1.51
53667;BMP280;39568;51.026;5.468;2022-12-04T08:04:09;100759.03;;;1.57
53667;BMP280;39568;51.026;5.468;2022-12-04T08:06:37;100757.75;;;1.49
53667;BMP280;39568;51.026;5.468;2022-12-04T08:09:04;100764.91;;;1.49
53667;BMP280;39568;51.026;5.468;2022-12-04T08:11:31;100766.97;;;1.41
53667;BMP280;39568;51.026;5.468;2022-12-04T08:14:00;100760.31;;;1.53
53667;BMP280;39568;51.026;5.468;2022-12-04T08:16:29;100762.84;;;1.56
53667;BMP280;39568;51.026;5.468;2022-12-04T08:18:57;100756.31;;;1.48
53667;BMP280;39568;51.026;5.468;2022-12-04T08:21:26;100757.75;;;1.49
53667;BMP280;39568;51.026;5.468;2022-12-04T08:23:54;100753.16;;;1.53
53667;BMP280;39568;51.026;5.468;2022-12-04T08:26:23;100754.97;;;1.56
53667;BMP280;39568;51.026;5.468;2022-12-04T08:28:52;100757.41;;;1.63
53667;BMP280;39568;51.026;5.468;2022-12-04T08:31:22;100753.09;;;1.69
53667;BMP280;39568;51.026;5.468;2022-12-04T08:33:50;100754.72;;;1.79
53667;BMP280;39568;51.026;5.468;2022-12-04T08:36:19;100745.50;;;1.87
53667;BMP280;39568;51.026;5.468;2022-12-04T08:38:46;100754.00;;;1.91
53667;BMP280;39568;51.026;5.468;2022-12-04T08:41:16;100751.78;;;1.90
53667;BMP280;39568;51.026;5.468;2022-12-04T08:43:43;100750.53;;;1.94
53667;BMP280;39568;51.026;5.468;2022-12-04T08:46:11;100744.34;;;2.01
53667;BMP280;39568;51.026;5.468;2022-12-04T08:48:39;100752.66;;;2.00
53667;BMP280;39568;51.026;5.468;2022-12-04T08:51:06;100758.72;;;1.96
53667;BMP280;39568;51.026;5.468;2022-12-04T08:53:34;100752.19;;;1.88
53667;BMP280;39568;51.026;5.468;2022-12-04T08:56:02;100756.63;;;1.91
53667;BMP280;39568;51.026;5.468;2022-12-04T08:58:29;100753.78;;;1.99
53667;BMP280;39568;51.026;5.468;2022-12-04T09:00:55;100749.19;;;2.03
53667;BMP280;39568;51.026;5.468;2022-12-04T09:03:22;100749.38;;;2.08
53667;BMP280;39568;51.026;5.468;2022-12-04T09:05:50;100740.91;;;2.17
53667;BMP280;39568;51.026;5.468;2022-12-04T09:08:17;100743.53;;;2.17
53667;BMP280;39568;51.026;5.468;2022-12-04T09:10:43;100741.22;;;2.19
53667;BMP280;39568;51.026;5.468;2022-12-04T09:13:10;100741.22;;;2.19
53667;BMP280;39568;51.026;5.468;2022-12-04T09:15:38;100744.91;;;2.21
53667;BMP280;39568;51.026;5.468;2022-12-04T09:18:05;100740.69;;;2.24
53667;BMP280;39568;51.026;5.468;2022-12-04T09:20:31;100745.41;;;2.29
53667;BMP280;39568;51.026;5.468;2022-12-04T09:23:00;100738.16;;;2.33
53667;BMP280;39568;51.026;5.468;2022-12-04T09:25:27;100758.31;;;2.36
53667;BMP280;39568;51.026;5.468;2022-12-04T09:27:54;100749.06;;;2.44
53667;BMP280;39568;51.026;5.468;2022-12-04T09:30:21;100753.06;;;2.36
53667;BMP280;39568;51.026;5.468;2022-12-04T09:32:47;100761.91;;;2.42
53667;BMP280;39568;51.026;5.468;2022-12-04T09:35:14;100763.56;;;2.49
53667;BMP280;39568;51.026;5.468;2022-12-04T09:37:41;100774.31;;;2.54
53667;BMP280;39568;51.026;5.468;2022-12-04T09:40:18;100779.75;;;2.60
53667;BMP280;39568;51.026;5.468;2022-12-04T09:42:54;100769.44;;;2.65
53667;BMP280;39568;51.026;5.468;2022-12-04T09:45:26;100765.97;;;2.68
53667;BMP280;39568;51.026;5.468;2022-12-04T09:47:55;100770.38;;;2.71
53667;BMP280;39568;51.026;5.468;2022-12-04T09:50:25;100759.44;;;2.73
53667;BMP280;39568;51.026;5.468;2022-12-04T09:52:56;100762.59;;;2.80
53667;BMP280;39568;51.026;5.468;2022-12-04T09:55:29;100771.72;;;2.88
53667;BMP280;39568;51.026;5.468;2022-12-04T09:57:59;100763.09;;;2.88
53667;BMP280;39568;51.026;5.468;2022-12-04T10:00:27;100762.00;;;2.98
53667;BMP280;39568;51.026;5.468;2022-12-04T10:02:58;100757.28;;;3.06
53667;BMP280;39568;51.026;5.468;2022-12-04T10:05:42;100759.59;;;3.04
53667;BMP280;39568;51.026;5.468;2022-12-04T10:08:16;100761.28;;;2.97
53667;BMP280;39568;51.026;5.468;2022-12-04T10:10:54;100763.25;;;3.06
53667;BMP280;39568;51.026;5.468;2022-12-04T10:13:48;100770.63;;;2.98
53667;BMP280;39568;51.026;5.468;2022-12-04T10:16:22;100763.59;;;2.95
53667;BMP280;39568;51.026;5.468;2022-12-04T10:18:52;100758.22;;;2.99
53667;BMP280;39568;51.026;5.468;2022-12-04T10:21:40;100762.94;;;3.04
53667;BMP280;39568;51.026;5.468;2022-12-04T10:24:22;100778.94;;;2.97
53667;BMP280;39568;51.026;5.468;2022-12-04T10:26:53;100766.72;;;3.03
53667;BMP280;39568;51.026;5.468;2022-12-04T10:29:23;100773.06;;;3.06
53667;BMP280;39568;51.026;5.468;2022-12-04T10:31:53;100764.94;;;3.00
53667;BMP280;39568;51.026;5.468;2022-12-04T10:34:24;100757.94;;;2.97
53667;BMP280;39568;51.026;5.468;2022-12-04T10:36:52;100762.56;;;2.93
53667;BMP280;39568;51.026;5.468;2022-12-04T10:39:23;100762.13;;;2.94
53667;BMP280;39568;51.026;5.468;2022-12-04T10:41:57;100760.38;;;2.91
53667;BMP280;39568;51.026;5.468;2022-12-04T10:44:25;100751.84;;;2.87
53667;BMP280;39568;51.026;5.468;2022-12-04T10:46:54;100752.78;;;2.93
53667;BMP280;39568;51.026;5.468;2022-12-04T10:49:23;100759.44;;;2.85
53667;BMP280;39568;51.026;5.468;2022-12-04T10:51:51;100752.50;;;2.79
53667;BMP280;39568;51.026;5.468;2022-12-04T10:54:21;100755.78;;;2.70
53667;BMP280;39568;51.026;5.468;2022-12-04T10:56:50;100757.56;;;2.73
53667;BMP280;39568;51.026;5.468;2022-12-04T10:59:18;100757.34;;;2.80
53667;BMP280;39568;51.026;5.468;2022-12-04T11:01:45;100752.19;;;2.77
53667;BMP280;39568;51.026;5.468;2022-12-04T11:04:19;100748.31;;;2.81
53667;BMP280;39568;51.026;5.468;2022-12-04T11:06:47;100752.38;;;2.82
53667;BMP280;39568;51.026;5.468;2022-12-04T11:09:20;100745.97;;;2.83
53667;BMP280;39568;51.026;5.468;2022-12-04T11:11:48;100754.09;;;2.76
53667;BMP280;39568;51.026;5.468;2022-12-04T11:14:16;100748.81;;;2.76
53667;BMP280;39568;51.026;5.468;2022-12-04T11:16:46;100754.09;;;2.76
53667;BMP280;39568;51.026;5.468;2022-12-04T11:19:22;100754.22;;;2.60
53667;BMP280;39568;51.026;5.468;2022-12-04T11:21:50;100762.97;;;2.57
53667;BMP280;39568;51.026;5.468;2022-12-04T11:24:20;100751.81;;;2.53
53667;BMP280;39568;51.026;5.468;2022-12-04T11:26:48;100747.19;;;2.57
53667;BMP280;39568;51.026;5.468;2022-12-04T11:29:17;100741.69;;;2.64
53667;BMP280;39568;51.026;5.468;2022-12-04T11:31:50;100746.44;;;2.69
53667;BMP280;39568;51.026;5.468;2022-12-04T11:34:21;100740.66;;;2.74
53667;BMP280;39568;51.026;5.468;2022-12-04T11:36:51;100727.50;;;2.74
53667;BMP280;39568;51.026;5.468;2022-12-04T11:39:23;100730.34;;;2.67
53667;BMP280;39568;51.026;5.468;2022-12-04T11:41:58;100738.66;;;2.66
53667;BMP280;39568;51.026;5.468;2022-12-04T11:44:27;100736.69;;;2.57
53667;BMP280;39568;51.026;5.468;2022-12-04T11:46:58;100732.06;;;2.61
53667;BMP280;39568;51.026;5.468;2022-12-04T11:49:26;100728.97;;;2.63
53667;BMP280;39568;51.026;5.468;2022-12-04T11:52:06;100723.72;;;2.63
53667;BMP280;39568;51.026;5.468;2022-12-04T11:54:48;100724.03;;;2.65
53667;BMP280;39568;51.026;5.468;2022-12-04T11:57:23;100719.56;;;2.53
53667;BMP280;39568;51.026;5.468;2022-12-04T12:00:08;100717.56;;;2.44
53667;BMP280;39568;51.026;5.468;2022-12-04T12:03:02;100712.66;;;2.46
53667;BMP280;39568;51.026;5.468;2022-12-04T12:05:48;100709.59;;;2.47
53667;BMP280;39568;51.026;5.468;2022-12-04T12:08:29;100695.41;;;2.45
53667;BMP280;39568;51.026;5.468;2022-12-04T12:11:05;100695.41;;;2.45
53667;BMP280;39568;51.026;5.468;2022-12-04T12:13:45;100700.78;;;2.41
53667;BMP280;39568;51.026;5.468;2022-12-04T12:16:18;100686.38;;;2.46
53667;BMP280;39568;51.026;5.468;2022-12-04T12:19:10;100696.38;;;2.38
53667;BMP280;39568;51.026;5.468;2022-12-04T12:21:42;100697.81;;;2.39
53667;BMP280;39568;51.026;5.468;2022-12-04T12:24:26;100698.16;;;2.41
53667;BMP280;39568;51.026;5.468;2022-12-04T12:27:03;100689.84;;;2.43
53667;BMP280;39568;51.026;5.468;2022-12-04T12:29:45;100700.25;;;2.47
53667;BMP280;39568;51.026;5.468;2022-12-04T12:32:28;100690.91;;;2.33
53667;BMP280;39568;51.026;5.468;2022-12-04T12:34:59;100681.25;;;2.42
53667;BMP280;39568;51.026;5.468;2022-12-04T12:37:29;100689.44;;;2.32
53667;BMP280;39568;51.026;5.468;2022-12-04T12:39:59;100690.59;;;2.31
53667;BMP280;39568;51.026;5.468;2022-12-04T12:42:32;100697.53;;;2.37
53667;BMP280;39568;51.026;5.468;2022-12-04T12:45:04;100692.63;;;2.27
53667;BMP280;39568;51.026;5.468;2022-12-04T12:47:36;100696.16;;;2.33
53667;BMP280;39568;51.026;5.468;2022-12-04T12:50:12;100690.72;;;2.27
53667;BMP280;39568;51.026;5.468;2022-12-04T12:52:45;100690.00;;;2.27
53667;BMP280;39568;51.026;5.468;2022-12-04T12:55:16;100683.78;;;2.21
53667;BMP280;39568;51.026;5.468;2022-12-04T12:57:46;100681.91;;;2.21
53667;BMP280;39568;51.026;5.468;2022-12-04T13:00:16;100674.34;;;2.23
53667;BMP280;39568;51.026;5.468;2022-12-04T13:02:46;100679.91;;;2.25
53667;BMP280;39568;51.026;5.468;2022-12-04T13:05:19;100680.94;;;2.28
53667;BMP280;39568;51.026;5.468;2022-12-04T13:08:02;100685.16;;;2.25
53667;BMP280;39568;51.026;5.468;2022-12-04T13:10:34;100688.31;;;2.20
53667;BMP280;39568;51.026;5.468;2022-12-04T13:13:04;100685.91;;;2.26
53667;BMP280;39568;51.026;5.468;2022-12-04T13:15:38;100689.66;;;2.25
53667;BMP280;39568;51.026;5.468;2022-12-04T13:18:07;100690.84;;;2.11
53667;BMP280;39568;51.026;5.468;2022-12-04T13:20:42;100682.41;;;2.16
53667;BMP280;39568;51.026;5.468;2022-12-04T13:23:21;100682.41;;;2.16
53667;BMP280;39568;51.026;5.468;2022-12-04T13:25:58;100676.53;;;2.12
53667;BMP280;39568;51.026;5.468;2022-12-04T13:28:37;100677.50;;;2.06
53667;BMP280;39568;51.026;5.468;2022-12-04T13:31:14;100673.72;;;2.07
53667;BMP280;39568;51.026;5.468;2022-12-04T13:34:09;100676.97;;;2.11
53667;BMP280;39568;51.026;5.468;2022-12-04T13:36:58;100677.09;;;2.07
53667;BMP280;39568;51.026;5.468;2022-12-04T13:39:47;100674.03;;;2.09
53667;BMP280;39568;51.026;5.468;2022-12-04T13:42:22;100675.91;;;2.08
53667;BMP280;39568;51.026;5.468;2022-12-04T13:44:54;100669.72;;;2.15
53667;BMP280;39568;51.026;5.468;2022-12-04T13:47:26;100678.34;;;2.15
53667;BMP280;39568;51.026;5.468;2022-12-04T13:50:06;100674.47;;;2.07
53667;BMP280;39568;51.026;5.468;2022-12-04T13:52:38;100688.84;;;2.15
53667;BMP280;39568;51.026;5.468;2022-12-04T13:55:29;100685.78;;;2.17
53667;BMP280;39568;51.026;5.468;2022-12-04T13:57:58;100677.81;;;2.08
53667;BMP280;39568;51.026;5.468;2022-12-04T14:00:29;100680.75;;;2.10
53667;BMP280;39568;51.026;5.468;2022-12-04T14:02:58;100684.53;;;2.09
53667;BMP280;39568;51.026;5.468;2022-12-04T14:05:28;100687.88;;;2.09
53667;BMP280;39568;51.026;5.468;2022-12-04T14:08:00;100672.75;;;2.01
53667;BMP280;39568;51.026;5.468;2022-12-04T14:10:30;100673.09;;;2.03
53667;BMP280;39568;51.026;5.468;2022-12-04T14:13:01;100670.88;;;2.01
53667;BMP280;39568;51.026;5.468;2022-12-04T14:15:30;100671.59;;;2.02
53667;BMP280;39568;51.026;5.468;2022-12-04T14:17:59;100657.84;;;1.98
53667;BMP280;39568;51.026;5.468;2022-12-04T14:20:28;100665.63;;;2.01
53667;BMP280;39568;51.026;5.468;2022-12-04T14:23:06;100660.47;;;1.98
53667;BMP280;39568;51.026;5.468;2022-12-04T14:25:36;100669.72;;;2.02
53667;BMP280;39568;51.026;5.468;2022-12-04T14:28:35;100670.25;;;1.97